Weather observations for the past three days for
Burlington - Carson County Airport
Metric (Imperial)
Date Time (mdt) Wind (kph) Vis. (km) Weather Sky Cond. Temperature (ºC) Relative Humidity Wind Chill (°C) Heat Index (°C) Pressure Precipitation (cm)
Air Dwpt 6 hour altimeter (cm) sea level (mb) 1 hr 3 hr 6 hr
Max. Min.
01 16:53 SW 13 16.09 Fair CLR 31.1 12.2 31% 30 76.25 1010.7
01 15:53 Vrbl 9 16.09 Fair CLR 30.6 13.9 36% 30 76.28 1011.1
01 14:53 SW 19 16.09 Fair CLR 30.6 14.4 37% 30 76.3 1011.4
01 13:53 SW 24 G 37 16.09 Fair CLR 30 15 40% 30 76.38 1012.5
01 12:53 W 22 16.09 Fair CLR 30 16.1 43% 30 76.43 1013.1
01 11:53 SW 22 16.09 Fair CLR 28.3 15.6 28.9 16.7 46% 28 76.48 1013.8
01 10:53 W 17 16.09 Fair CLR 28.3 15.6 46% 28 76.48 1013.9
01 09:53 S 24 16.09 Fair CLR 25.6 15.6 54% 26 76.43 1013.4
01 08:53 S 19 16.09 Fair CLR 23.3 16.1 64% 76.45 1013.1
01 07:53 SW 17 16.09 Fair CLR 20.6 16.1 76% 76.48 1013.9
01 06:53 S 15 16.09 Fair CLR 17.2 15 87% 76.4 1013.3
01 05:53 S 13 16.09 Fair CLR 17.2 15 19.4 16.1 87% 76.4 1012.7 0.23
01 04:53 SW 9 16.09 Fair CLR 16.7 15.6 93% 76.4 1013.0
01 03:53 W 6 16.09 A Few Clouds FEW110 17.2 16.1 93% 76.45 1013.1
01 02:53 NE 6 16.09 Fair CLR 17.8 16.1 90% 76.45 1013.2 0.23
01 01:53 N 15 16.09 Mostly Cloudy BKN090 18.9 16.1 84% 76.5 1013.7
01 00:53 W 13 14.48 Thunderstorm in Vicinity Rain FEW055 OVC085 18.3 16.1 87% 76.58 1015.0 0.23
31 23:53 W 33 G 59 16.09 Thunderstorm Light Rain and Breezy OVC100 19.4 15.6 30 18.9 79% 76.45 1013.1 0.25 0.3
31 22:53 Calm 16.09 Thunderstorm Light Rain FEW055 OVC110 19.4 15 76% 76.4 1012.7 0.05
31 21:53 SE 30 G 48 16.09 Light Rain BKN110 21.1 13.3 61% 76.43 1013.1
31 20:53 S 41 G 61 16.09 Partly Cloudy and Breezy SCT110 26.1 10 36% 26 76.48 1013.5
31 19:53 SW 26 16.09 Mostly Cloudy SCT080 BKN090 26.7 11.7 39% 27 76.43 1013.4
31 18:53 S 15 16.09 Mostly Cloudy BKN110 28.3 14.4 43% 28 76.35 1012.5
31 17:53 S 19 16.09 Fair CLR 30 13.9 33.9 30 37% 29 76.3 1011.5
31 16:53 S 17 16.09 Fair CLR 31.1 13.9 35% 30 76.28 1011.2
31 15:53 Vrbl 6 16.09 Fair CLR 32.8 10 25% 31 76.33 1011.3
31 14:53 Calm 14.48 Fair CLR 32.2 11.1 27% 31 76.38 1012.0
31 13:53 S 9 16.09 Fair CLR 32.2 11.1 27% 31 76.4 1012.5
31 12:53 W 6 16.09 Fair CLR 31.1 10.6 28% 30 76.45 1013.1
31 11:53 Calm 16.09 Fair CLR 30.6 11.7 30.6 15.6 31% 29 76.5 1013.8
31 10:53 SW 11 G 28 16.09 Fair CLR 28.9 13.3 38% 28 76.5 1014.3
31 09:53 SW 15 16.09 Fair CLR 26.7 15 49% 27 76.5 1014.2
31 08:53 SW 17 16.09 Fair CLR 23.9 14.4 55% 25 76.5 1014.6
31 07:53 S 13 16.09 Fair CLR 21.1 15 68% 76.5 1015.0
31 06:53 S 9 16.09 Fair CLR 16.1 14.4 90% 76.45 1014.0
31 05:53 SW 11 16.09 Fair CLR 16.1 14.4 20 16.1 90% 76.38 1012.7 0.03
31 04:53 W 11 16.09 Fair CLR 17.2 15 87% 76.35 1012.0
31 03:53 W 9 16.09 Fair CLR 17.8 15.6 87% 76.38 1012.3
31 02:53 Vrbl 11 16.09 Fair CLR 18.3 16.1 87% 76.38 1012.1 0.03
31 01:53 S 11 16.09 Mostly Cloudy SCT090 BKN110 18.9 15.6 81% 76.4 1012.4
31 00:53 S 11 16.09 Light Rain BKN110 18.9 15.6 81% 76.4 1012.7 0.03
30 23:53 W 7 16.09 Overcast FEW075 OVC110 19.4 16.7 31.1 18.9 84% 76.43 1013.1 0.18
30 22:53 S 9 16.09 Mostly Cloudy BKN110 18.9 15.6 81% 76.4 1013.1
30 21:53 NW 6 16.09 Partly Cloudy FEW080 FEW095 SCT120 20.6 14.4 68% 76.35 1012.4
30 20:53 NE 13 16.09 Mostly Cloudy SCT055 SCT070 BKN090 21.1 13.9 64% 76.35 1012.4 0.18
30 19:53 N 19 16.09 Thunderstorm in Vicinity FEW110 21.1 12.8 59% 76.33 1012.7 0.18
30 18:53 W 13 16.09 Mostly Cloudy BKN100 BKN120 28.3 13.9 41% 28 76.28 1011.2
30 17:53 SE 11 16.09 Fair CLR 31.1 12.2 32.8 28.9 31% 30 76.2 1010.2
30 16:53 E 13 16.09 Fair CLR 31.7 11.1 28% 30 76.17 1009.6
30 15:53 Calm 16.09 Fair CLR 31.7 10.6 27% 30 76.15 1009.6
30 14:53 N 11 16.09 Fair CLR 32.2 11.1 27% 31 76.17 1009.7
30 13:53 NE 6 16.09 Fair CLR 31.7 10.6 27% 30 76.23 1010.4
30 12:53 SW 9 16.09 Fair CLR 30.6 11.1 30% 29 76.25 1010.8
30 11:53 Calm 16.09 Fair CLR 28.9 11.1 28.9 16.7 33% 28 76.3 1011.2
30 10:53 N 7 16.09 Fair CLR 26.7 11.1 38% 27 76.33 1011.8
30 09:53 N 9 16.09 Fair CLR 25 10.6 40% 26 76.3 1010.8
30 08:53 NW 19 16.09 Fair CLR 25.6 11.7 42% 26 76.3 1011.2
30 07:53 NW 13 16.09 Fair CLR 20.6 12.2 59% 76.28 1011.3
30 06:53 W 9 16.09 Fair CLR 17.8 12.8 73% 76.23 1010.6
30 05:53 W 11 16.09 Fair CLR 16.7 12.8 20 15 78% 76.2 1009.5
30 04:53 W 9 16.09 Fair CLR 16.7 12.8 78% 76.17 1009.2
30 03:53 W 11 16.09 Fair CLR 15 12.8 87% 76.17 1009.4
30 02:53 NW 11 16.09 Fair CLR 16.1 12.2 78% 76.17 1009.4
30 01:53 NW 15 16.09 Fair CLR 16.7 13.3 80% 76.25 1010.1
30 00:53 NW 15 16.09 Fair CLR 18.3 13.3 73% 76.25 1010.4
29 23:53 N 9 16.09 Fair CLR 20 13.3 35 20 65% 76.3 1010.6
29 22:53 N 28 G 48 16.09 Fair CLR 21.7 13.3 59% 76.23 1009.6
29 21:53 W 19 16.09 Fair CLR 26.7 11.1 38% 27 76.15 1008.3
29 20:53 SW 13 16.09 Fair CLR 24.4 11.1 43% 26 76.1 1007.8
29 19:53 SW 13 16.09 Fair CLR 25.6 8.9 35% 26 76 1007.5
29 18:53 SW 13 16.09 Fair CLR 28.9 9.4 30% 28 76 1007.6
29 17:53 SW 22 16.09 Fair CLR 35 8.3 37.2 33.3 19% 33 76 1006.9
Date Time (mdt) Wind (kph) Vis. (km) Weather Sky Cond. Air Dwpt Max. Min. Relative Humidity Wind Chill (°C) Heat Index (°C) altimeter (cm) sea level (mb) 1 hr 3 hr 6 hr
6 hour
Temperature (ºC) Pressure Precipitation (cm)